createdAt,value
2022-10-19T00:00:30.599Z,94.41
2022-10-19T00:01:20.397Z,94.64
2022-10-19T00:02:08.211Z,94.77
2022-10-19T00:02:55.089Z,94.97
2022-10-19T00:03:42.914Z,95.12
2022-10-19T00:04:30.079Z,95.38
2022-10-19T00:05:17.364Z,95.50
2022-10-19T00:06:17.749Z,95.48
2022-10-19T00:07:04.680Z,95.54
2022-10-19T00:07:51.621Z,95.51
2022-10-19T00:08:38.653Z,95.66
2022-10-19T00:09:25.560Z,96.04
2022-10-19T00:10:12.651Z,96.81
2022-10-19T00:11:01.750Z,96.62
2022-10-19T00:11:50.511Z,96.81
2022-10-19T00:12:37.829Z,96.76
2022-10-19T00:13:24.890Z,96.43
2022-10-19T00:14:17.121Z,97.05
2022-10-19T00:15:05.670Z,97.24
2022-10-19T00:15:52.620Z,97.13
2022-10-19T00:16:39.665Z,97.16
2022-10-19T00:17:26.841Z,97.10
2022-10-19T00:18:13.738Z,97.69
2022-10-19T00:19:02.386Z,98.27
2022-10-19T00:19:49.400Z,98.10
2022-10-19T00:20:37.152Z,98.36
2022-10-19T00:21:24.231Z,99.04
2022-10-19T00:22:13.183Z,98.74
2022-10-19T00:23:01.041Z,97.89
2022-10-19T00:23:48.861Z,97.11
2022-10-19T00:24:35.810Z,97.87
2022-10-19T00:25:22.690Z,98.03
2022-10-19T00:26:10.025Z,98.16
2022-10-19T00:26:56.879Z,98.73
2022-10-19T00:27:44.059Z,98.36
2022-10-19T00:28:31.511Z,98.14
2022-10-19T00:29:18.490Z,98.39
2022-10-19T00:30:06.139Z,98.35
2022-10-19T00:30:53.182Z,98.69
2022-10-19T00:31:40.761Z,99.15
2022-10-19T00:32:27.871Z,99.80
2022-10-19T00:33:14.865Z,99.46
2022-10-19T00:34:01.961Z,99.14
2022-10-19T00:34:48.950Z,99.76
2022-10-19T00:35:40.769Z,99.70
2022-10-19T00:36:28.967Z,99.13
2022-10-19T00:37:15.899Z,99.27
2022-10-19T00:38:02.871Z,100.00
2022-10-19T00:38:49.860Z,100.00
2022-10-19T00:39:36.825Z,100.00
2022-10-19T00:40:23.782Z,100.00
2022-10-19T00:41:10.832Z,100.00
2022-10-19T00:41:57.690Z,100.00
2022-10-19T00:42:44.740Z,100.00
2022-10-19T00:43:31.840Z,100.00
2022-10-19T00:44:19.199Z,100.00
2022-10-19T00:45:15.572Z,100.00
2022-10-19T00:46:02.490Z,100.00
2022-10-19T00:46:49.489Z,100.00
2022-10-19T00:47:36.461Z,100.00
2022-10-19T00:48:26.964Z,100.00
2022-10-19T00:49:23.906Z,100.00
2022-10-19T00:50:11.418Z,100.00
2022-10-19T00:51:00.420Z,100.00
2022-10-19T00:51:51.910Z,100.00
2022-10-19T00:52:38.843Z,100.00
2022-10-19T00:53:29.342Z,100.00
2022-10-19T00:54:16.418Z,100.00
2022-10-19T00:55:03.875Z,100.00
2022-10-19T00:55:50.950Z,100.00
2022-10-19T00:56:41.669Z,100.00
2022-10-19T00:57:30.889Z,100.00
2022-10-19T00:58:17.900Z,100.00
2022-10-19T00:59:05.761Z,100.00
2022-10-19T00:59:52.711Z,100.00
2022-10-19T01:00:39.916Z,100.00
2022-10-19T01:01:27.985Z,100.00
2022-10-19T01:02:14.842Z,100.00
2022-10-19T01:03:01.913Z,100.00
2022-10-19T01:03:49.240Z,100.00
2022-10-19T01:04:38.894Z,100.00
2022-10-19T01:05:26.806Z,100.00
2022-10-19T01:06:15.308Z,100.00
2022-10-19T01:07:04.273Z,100.00
2022-10-19T01:07:51.330Z,100.00
2022-10-19T01:08:38.330Z,100.00
2022-10-19T01:09:25.153Z,100.00
2022-10-19T01:10:12.580Z,100.00
2022-10-19T01:11:37.832Z,100.00
2022-10-19T01:12:58.999Z,100.00
2022-10-19T01:14:00.075Z,100.00
2022-10-19T01:14:49.443Z,100.00
2022-10-19T01:17:04.800Z,100.00
2022-10-19T01:18:25.460Z,100.00
2022-10-19T01:19:49.860Z,100.00
2022-10-19T01:20:52.349Z,100.00
2022-10-19T01:21:48.116Z,100.00
2022-10-19T01:23:11.861Z,100.00
2022-10-19T01:24:18.229Z,100.00
2022-10-19T01:25:31.052Z,100.00
2022-10-19T01:26:52.581Z,100.00
2022-10-19T01:27:46.751Z,100.00
2022-10-19T01:28:45.187Z,100.00
2022-10-19T01:29:56.861Z,100.00
2022-10-19T01:30:56.070Z,100.00
2022-10-19T01:32:00.671Z,100.00
2022-10-19T01:33:04.193Z,100.00
2022-10-19T01:34:10.999Z,100.00
2022-10-19T01:35:31.049Z,100.00
2022-10-19T01:36:24.209Z,100.00
2022-10-19T01:37:22.791Z,100.00
2022-10-19T01:38:25.657Z,100.00
2022-10-19T01:39:25.610Z,100.00
2022-10-19T01:40:40.090Z,100.00
2022-10-19T01:42:04.509Z,100.00
2022-10-19T01:43:04.749Z,100.00
2022-10-19T01:44:01.662Z,100.00
2022-10-19T01:44:58.880Z,100.00
2022-10-19T01:45:48.129Z,100.00
2022-10-19T01:46:39.289Z,100.00
2022-10-19T01:47:44.191Z,100.00
2022-10-19T01:48:35.260Z,100.00
2022-10-19T01:49:40.430Z,100.00
2022-10-19T01:50:40.181Z,100.00
2022-10-19T01:51:31.279Z,100.00
2022-10-19T01:52:20.016Z,100.00
2022-10-19T01:53:08.462Z,100.00
2022-10-19T01:53:58.441Z,100.00
2022-10-19T01:54:49.758Z,100.00
2022-10-19T01:55:41.051Z,100.00
2022-10-19T01:56:28.620Z,100.00
2022-10-19T01:57:23.156Z,100.00
2022-10-19T01:58:13.790Z,100.00
2022-10-19T01:59:04.091Z,100.00
2022-10-19T01:59:51.902Z,100.00
2022-10-19T02:00:41.457Z,100.00
2022-10-19T02:01:31.053Z,100.00
2022-10-19T02:02:18.952Z,100.00
2022-10-19T02:03:06.933Z,100.00
2022-10-19T02:03:54.550Z,100.00
2022-10-19T02:04:41.809Z,100.00
2022-10-19T02:05:32.460Z,100.00
2022-10-19T02:06:19.999Z,100.00
2022-10-19T02:07:07.700Z,100.00
2022-10-19T02:08:01.468Z,100.00
2022-10-19T02:08:50.990Z,100.00
2022-10-19T02:09:37.979Z,100.00
2022-10-19T02:10:25.361Z,100.00
2022-10-19T02:11:12.451Z,100.00
2022-10-19T02:12:02.508Z,100.00
2022-10-19T02:12:49.660Z,100.00
2022-10-19T02:13:37.469Z,100.00
2022-10-19T02:14:29.063Z,100.00
2022-10-19T02:15:20.969Z,100.00
2022-10-19T02:16:13.169Z,100.00
2022-10-19T02:17:04.019Z,100.00
2022-10-19T02:17:53.550Z,100.00
2022-10-19T02:18:45.341Z,100.00
2022-10-19T02:19:32.371Z,100.00
2022-10-19T02:20:20.771Z,100.00
2022-10-19T02:21:08.190Z,100.00
2022-10-19T02:21:55.180Z,100.00
2022-10-19T02:22:42.622Z,100.00
2022-10-19T02:23:29.670Z,100.00
2022-10-19T02:24:16.520Z,100.00
2022-10-19T02:25:03.843Z,100.00
2022-10-19T02:25:50.899Z,100.00
2022-10-19T02:26:38.480Z,100.00
2022-10-19T02:27:25.460Z,100.00
2022-10-19T02:28:12.629Z,100.00
2022-10-19T02:28:59.770Z,100.00
2022-10-19T02:29:46.871Z,100.00
2022-10-19T02:30:34.012Z,100.00
2022-10-19T02:31:21.229Z,100.00
2022-10-19T02:32:10.550Z,100.00
2022-10-19T02:32:57.491Z,100.00
2022-10-19T02:33:44.690Z,100.00
2022-10-19T02:34:31.850Z,100.00
2022-10-19T02:35:18.779Z,100.00
2022-10-19T02:36:06.033Z,100.00
2022-10-19T02:36:53.080Z,100.00
2022-10-19T02:37:40.631Z,100.00
2022-10-19T02:38:27.849Z,100.00
2022-10-19T02:39:14.818Z,100.00
2022-10-19T02:40:01.802Z,100.00
2022-10-19T02:41:07.386Z,100.00
2022-10-19T02:42:18.736Z,100.00
2022-10-19T02:43:10.822Z,100.00
2022-10-19T02:44:01.770Z,100.00
2022-10-19T02:44:53.851Z,100.00
2022-10-19T02:45:48.960Z,100.00
2022-10-19T02:46:44.847Z,100.00
2022-10-19T02:47:36.226Z,100.00
2022-10-19T02:48:25.230Z,100.00
2022-10-19T02:49:12.839Z,100.00
2022-10-19T02:49:59.763Z,100.00
2022-10-19T02:50:50.170Z,100.00
2022-10-19T02:51:39.580Z,100.00
2022-10-19T02:52:26.552Z,100.00
2022-10-19T02:53:14.283Z,100.00
2022-10-19T02:54:04.257Z,100.00
2022-10-19T02:54:52.280Z,100.00
2022-10-19T02:55:42.280Z,100.00
2022-10-19T02:56:29.390Z,100.00
2022-10-19T02:57:23.129Z,100.00
2022-10-19T02:58:10.385Z,100.00
2022-10-19T02:58:57.446Z,100.00
2022-10-19T02:59:44.498Z,100.00
2022-10-19T03:00:31.550Z,100.00
2022-10-19T03:01:18.567Z,100.00
2022-10-19T03:02:05.538Z,100.00
2022-10-19T03:02:52.493Z,100.00
2022-10-19T03:03:39.349Z,100.00
2022-10-19T03:04:26.309Z,100.00
2022-10-19T03:05:13.270Z,100.00
2022-10-19T03:06:00.183Z,100.00
2022-10-19T03:06:47.131Z,100.00
2022-10-19T03:07:34.253Z,100.00
2022-10-19T03:08:21.320Z,100.00
2022-10-19T03:09:08.621Z,100.00
2022-10-19T03:09:55.564Z,100.00
2022-10-19T03:10:42.630Z,100.00
2022-10-19T03:11:29.509Z,100.00
2022-10-19T03:12:16.520Z,100.00
2022-10-19T03:13:03.539Z,100.00
2022-10-19T03:13:50.444Z,100.00
2022-10-19T03:14:37.365Z,100.00
2022-10-19T03:15:27.491Z,100.00
2022-10-19T03:16:14.620Z,100.00
2022-10-19T03:17:01.552Z,100.00
2022-10-19T03:17:48.491Z,100.00
2022-10-19T03:18:35.498Z,100.00
2022-10-19T03:19:22.420Z,100.00
2022-10-19T03:20:10.708Z,100.00
2022-10-19T03:21:05.711Z,100.00
2022-10-19T03:21:52.641Z,100.00
2022-10-19T03:22:39.526Z,100.00
2022-10-19T03:23:26.450Z,100.00
2022-10-19T03:24:13.391Z,100.00
2022-10-19T03:25:00.360Z,100.00
2022-10-19T03:25:47.241Z,100.00
2022-10-19T03:26:34.250Z,100.00
2022-10-19T03:27:21.329Z,100.00
2022-10-19T03:28:08.249Z,100.00
2022-10-19T03:28:55.223Z,100.00
2022-10-19T03:29:42.150Z,100.00
2022-10-19T03:30:29.170Z,100.00
2022-10-19T03:31:16.000Z,100.00
2022-10-19T03:32:03.083Z,100.00
2022-10-19T03:32:50.059Z,100.00
2022-10-19T03:33:37.072Z,100.00
2022-10-19T03:34:24.011Z,100.00
2022-10-19T03:35:10.931Z,100.00
2022-10-19T03:36:16.391Z,100.00
2022-10-19T03:37:03.407Z,100.00
2022-10-19T03:37:50.320Z,100.00
2022-10-19T03:38:37.191Z,100.00
2022-10-19T03:39:24.141Z,100.00
2022-10-19T03:40:11.211Z,100.00
2022-10-19T03:40:58.181Z,100.00
2022-10-19T03:41:45.509Z,100.00
2022-10-19T03:42:32.579Z,100.00
2022-10-19T03:43:19.509Z,100.00
2022-10-19T03:44:07.472Z,100.00
2022-10-19T03:44:54.358Z,100.00
2022-10-19T03:45:41.270Z,100.00
2022-10-19T03:46:28.230Z,100.00
2022-10-19T03:47:15.301Z,100.00
2022-10-19T03:48:02.330Z,100.00
2022-10-19T03:48:49.728Z,100.00
2022-10-19T03:49:38.120Z,100.00
2022-10-19T03:50:27.030Z,100.00
2022-10-19T03:51:16.129Z,100.00
2022-10-19T03:52:03.130Z,100.00
2022-10-19T03:52:50.346Z,100.00
2022-10-19T03:53:37.910Z,100.00
2022-10-19T03:54:27.300Z,100.00
2022-10-19T03:55:16.302Z,100.00
2022-10-19T03:56:09.171Z,100.00
2022-10-19T03:56:56.039Z,100.00
2022-10-19T03:57:43.030Z,100.00
2022-10-19T03:58:29.980Z,100.00
2022-10-19T03:59:17.131Z,100.00
2022-10-19T04:00:08.429Z,100.00
2022-10-19T04:00:55.484Z,100.00
2022-10-19T04:01:45.122Z,100.00
2022-10-19T04:02:32.180Z,100.00
2022-10-19T04:03:19.129Z,100.00
2022-10-19T04:04:10.690Z,100.00
2022-10-19T04:04:57.670Z,100.00
2022-10-19T04:05:44.668Z,100.00
2022-10-19T04:06:33.833Z,100.00
2022-10-19T04:07:20.774Z,100.00
2022-10-19T04:08:07.785Z,100.00
2022-10-19T04:08:55.180Z,100.00
2022-10-19T04:09:42.090Z,100.00
2022-10-19T04:10:31.545Z,100.00
2022-10-19T04:11:21.200Z,100.00
2022-10-19T04:12:08.060Z,100.00
2022-10-19T04:12:54.980Z,100.00
2022-10-19T04:13:42.039Z,100.00
2022-10-19T04:14:32.508Z,100.00
2022-10-19T04:15:19.860Z,100.00
2022-10-19T04:16:07.718Z,100.00
2022-10-19T04:16:54.780Z,100.00
2022-10-19T04:17:43.132Z,100.00
2022-10-19T04:18:31.771Z,100.00
2022-10-19T04:19:18.711Z,100.00
2022-10-19T04:20:06.282Z,100.00
2022-10-19T04:20:59.950Z,100.00
2022-10-19T04:21:49.154Z,100.00
2022-10-19T04:22:36.021Z,100.00
2022-10-19T04:23:22.941Z,100.00
2022-10-19T04:24:14.901Z,100.00
2022-10-19T04:25:01.862Z,100.00
2022-10-19T04:25:48.741Z,100.00
2022-10-19T04:26:40.750Z,100.00
2022-10-19T04:27:27.732Z,100.00
2022-10-19T04:28:14.649Z,100.00
2022-10-19T04:29:02.285Z,100.00
2022-10-19T04:29:49.180Z,100.00
2022-10-19T04:30:36.169Z,100.00
2022-10-19T04:31:23.061Z,100.00
2022-10-19T04:32:09.950Z,100.00
2022-10-19T04:32:56.999Z,100.00
2022-10-19T04:33:43.970Z,100.00
2022-10-19T04:34:30.844Z,100.00
2022-10-19T04:35:17.739Z,100.00
2022-10-19T04:36:07.152Z,100.00
2022-10-19T04:36:54.200Z,100.00
2022-10-19T04:37:41.089Z,100.00
2022-10-19T04:38:29.199Z,100.00
2022-10-19T04:39:16.200Z,100.00
2022-10-19T04:40:04.100Z,100.00
2022-10-19T04:40:51.130Z,100.00
2022-10-19T04:41:38.900Z,100.00
2022-10-19T04:42:25.769Z,100.00
2022-10-19T04:43:12.734Z,100.00
2022-10-19T04:44:01.501Z,100.00
2022-10-19T04:44:48.382Z,100.00
2022-10-19T04:45:35.991Z,100.00
2022-10-19T04:46:22.921Z,100.00
2022-10-19T04:47:09.761Z,100.00
2022-10-19T04:47:59.730Z,100.00
2022-10-19T04:48:48.049Z,100.00
2022-10-19T04:49:35.000Z,100.00
2022-10-19T04:50:22.004Z,100.00
2022-10-19T04:51:10.030Z,100.00
2022-10-19T04:51:56.910Z,100.00
2022-10-19T04:52:45.469Z,100.00
2022-10-19T04:53:33.384Z,100.00
2022-10-19T04:54:20.321Z,100.00
2022-10-19T04:55:07.551Z,100.00
2022-10-19T04:55:54.510Z,100.00
2022-10-19T04:56:41.491Z,100.00
2022-10-19T04:57:28.439Z,100.00
2022-10-19T04:58:15.471Z,100.00
2022-10-19T04:59:02.489Z,100.00
2022-10-19T04:59:49.530Z,100.00
2022-10-19T05:00:38.793Z,100.00
2022-10-19T05:01:27.669Z,100.00
2022-10-19T05:02:14.550Z,100.00
2022-10-19T05:03:01.528Z,100.00
2022-10-19T05:03:48.927Z,100.00
2022-10-19T05:04:35.849Z,100.00
2022-10-19T05:05:24.539Z,100.00
2022-10-19T05:06:12.510Z,100.00
2022-10-19T05:06:59.460Z,100.00
2022-10-19T05:07:49.225Z,100.00
2022-10-19T05:08:37.238Z,100.00
2022-10-19T05:09:24.393Z,100.00
2022-10-19T05:10:14.131Z,100.00
2022-10-19T05:11:06.303Z,100.00
2022-10-19T05:11:53.233Z,100.00
2022-10-19T05:12:40.170Z,100.00
2022-10-19T05:13:26.989Z,100.00
2022-10-19T05:14:13.985Z,100.00
2022-10-19T05:15:00.990Z,100.00
2022-10-19T05:15:58.133Z,100.00
2022-10-19T05:16:45.222Z,100.00
2022-10-19T05:17:33.279Z,100.00
2022-10-19T05:18:20.332Z,100.00
2022-10-19T05:19:07.360Z,100.00
2022-10-19T05:19:54.340Z,100.00
2022-10-19T05:20:41.211Z,100.00
2022-10-19T05:21:29.160Z,100.00
2022-10-19T05:22:16.105Z,100.00
2022-10-19T05:23:06.320Z,100.00
2022-10-19T05:23:55.344Z,100.00
2022-10-19T05:24:42.280Z,100.00
2022-10-19T05:25:29.220Z,100.00
2022-10-19T05:26:18.320Z,100.00
2022-10-19T05:27:05.222Z,100.00
2022-10-19T05:27:53.310Z,100.00
2022-10-19T05:28:40.547Z,100.00
2022-10-19T05:29:28.551Z,100.00
2022-10-19T05:30:15.640Z,100.00
2022-10-19T05:31:11.562Z,100.00
2022-10-19T05:31:58.511Z,100.00
2022-10-19T05:32:45.549Z,100.00
2022-10-19T05:33:32.721Z,100.00
2022-10-19T05:34:19.710Z,100.00
2022-10-19T05:35:06.927Z,100.00
2022-10-19T05:35:53.850Z,100.00
2022-10-19T05:36:41.098Z,100.00
2022-10-19T05:37:28.202Z,100.00
2022-10-19T05:38:15.022Z,100.00
2022-10-19T05:39:06.901Z,100.00
2022-10-19T05:39:55.110Z,100.00
2022-10-19T05:40:49.201Z,100.00
2022-10-19T05:41:38.501Z,100.00
2022-10-19T05:42:25.402Z,100.00
2022-10-19T05:43:12.370Z,100.00
2022-10-19T05:44:01.571Z,100.00
2022-10-19T05:44:48.517Z,100.00
2022-10-19T05:45:35.601Z,100.00
2022-10-19T05:46:22.800Z,100.00
2022-10-19T05:47:09.768Z,100.00
2022-10-19T05:47:56.771Z,100.00
2022-10-19T05:48:43.994Z,100.00
2022-10-19T05:49:31.150Z,100.00
2022-10-19T05:50:18.109Z,100.00
2022-10-19T05:51:06.446Z,100.00
2022-10-19T05:51:53.429Z,100.00
2022-10-19T05:52:40.303Z,100.00
2022-10-19T05:53:28.154Z,100.00
2022-10-19T05:54:15.420Z,100.00
2022-10-19T05:55:02.290Z,100.00
2022-10-19T05:55:49.189Z,100.00
2022-10-19T05:56:36.080Z,100.00
2022-10-19T05:57:23.029Z,100.00
2022-10-19T05:58:09.979Z,100.00
2022-10-19T05:58:58.020Z,100.00
2022-10-19T05:59:44.970Z,100.00
2022-10-19T06:00:31.901Z,100.00
2022-10-19T06:01:20.280Z,100.00
2022-10-19T06:02:07.358Z,100.00
2022-10-19T06:02:58.987Z,100.00
2022-10-19T06:03:47.320Z,100.00
2022-10-19T06:04:34.270Z,100.00
2022-10-19T06:05:21.171Z,100.00
2022-10-19T06:06:08.971Z,100.00
2022-10-19T06:06:55.900Z,100.00
2022-10-19T06:07:42.730Z,100.00
2022-10-19T06:08:29.619Z,100.00
2022-10-19T06:09:16.840Z,100.00
2022-10-19T06:10:04.320Z,100.00
2022-10-19T06:10:51.611Z,100.00
2022-10-19T06:11:40.551Z,100.00
2022-10-19T06:12:27.529Z,100.00
2022-10-19T06:13:15.230Z,100.00
2022-10-19T06:14:06.619Z,100.00
2022-10-19T06:14:53.482Z,100.00
2022-10-19T06:15:40.979Z,100.00
2022-10-19T06:16:29.081Z,100.00
2022-10-19T06:17:16.431Z,100.00
2022-10-19T06:18:07.881Z,100.00
2022-10-19T06:18:55.700Z,100.00
2022-10-19T06:19:42.743Z,100.00
2022-10-19T06:20:29.819Z,100.00
2022-10-19T06:21:18.620Z,100.00
2022-10-19T06:22:05.489Z,100.00
2022-10-19T06:22:52.581Z,100.00
2022-10-19T06:23:39.700Z,100.00
2022-10-19T06:24:26.994Z,100.00
2022-10-19T06:25:17.917Z,100.00
2022-10-19T06:26:09.701Z,100.00
2022-10-19T06:26:56.541Z,100.00
2022-10-19T06:27:43.580Z,100.00
2022-10-19T06:28:30.781Z,100.00
2022-10-19T06:29:17.771Z,100.00
2022-10-19T06:30:05.300Z,100.00
2022-10-19T06:30:52.489Z,100.00
2022-10-19T06:31:39.762Z,100.00
2022-10-19T06:32:26.721Z,100.00
2022-10-19T06:33:13.991Z,100.00
2022-10-19T06:34:01.425Z,100.00
2022-10-19T06:34:49.323Z,100.00
2022-10-19T06:35:37.089Z,100.00
2022-10-19T06:36:26.590Z,100.00
2022-10-19T06:37:13.440Z,100.00
2022-10-19T06:38:00.682Z,100.00
2022-10-19T06:38:48.470Z,100.00
2022-10-19T06:39:35.362Z,100.00
2022-10-19T06:40:22.403Z,100.00
2022-10-19T06:41:10.133Z,100.00
2022-10-19T06:41:57.161Z,100.00
2022-10-19T06:42:44.001Z,100.00
2022-10-19T06:43:31.012Z,100.00
2022-10-19T06:44:18.040Z,100.00
2022-10-19T06:45:10.180Z,100.00
2022-10-19T06:45:57.201Z,100.00
2022-10-19T06:46:44.044Z,99.85
2022-10-19T06:47:33.503Z,99.08
2022-10-19T06:48:20.837Z,98.60
2022-10-19T06:49:07.719Z,97.37
2022-10-19T06:49:54.620Z,97.54
2022-10-19T06:50:41.531Z,97.18
2022-10-19T06:51:30.370Z,97.20
2022-10-19T06:52:17.290Z,97.52
2022-10-19T06:53:04.169Z,97.29
2022-10-19T06:53:55.633Z,97.29
2022-10-19T06:54:43.810Z,97.09
2022-10-19T06:55:30.755Z,96.32
2022-10-19T06:56:17.860Z,96.21
2022-10-19T06:57:04.902Z,96.15
2022-10-19T06:57:52.011Z,96.93
2022-10-19T06:58:39.671Z,96.49
2022-10-19T06:59:27.120Z,96.97
2022-10-19T07:00:14.782Z,97.21
2022-10-19T07:01:02.185Z,95.82
2022-10-19T07:01:49.210Z,93.54
2022-10-19T07:02:36.079Z,92.72
2022-10-19T07:03:24.491Z,92.21
2022-10-19T07:04:11.640Z,91.24
2022-10-19T07:04:59.650Z,90.52
2022-10-19T07:05:55.935Z,90.86
2022-10-19T07:06:42.833Z,90.23
2022-10-19T07:07:29.925Z,90.09
2022-10-19T07:08:16.841Z,88.27
2022-10-19T07:09:04.090Z,88.80
2022-10-19T07:09:51.180Z,89.08
2022-10-19T07:10:38.204Z,89.66
2022-10-19T07:11:25.584Z,89.13
2022-10-19T07:12:12.710Z,87.50
2022-10-19T07:12:59.942Z,87.89
2022-10-19T07:13:46.939Z,87.62
2022-10-19T07:14:38.916Z,87.71
2022-10-19T07:15:25.931Z,87.36
2022-10-19T07:16:21.200Z,87.54
2022-10-19T07:17:08.671Z,87.36
2022-10-19T07:17:55.730Z,87.58
2022-10-19T07:18:43.161Z,87.48
2022-10-19T07:19:30.224Z,85.65
2022-10-19T07:20:17.306Z,85.11
2022-10-19T07:21:09.340Z,85.32
2022-10-19T07:21:56.400Z,84.91
2022-10-19T07:22:43.289Z,84.58
2022-10-19T07:23:31.532Z,85.29
2022-10-19T07:24:18.911Z,85.38
2022-10-19T07:25:06.131Z,85.19
2022-10-19T07:25:54.090Z,85.05
2022-10-19T07:26:41.091Z,85.20
2022-10-19T07:27:28.232Z,85.28
2022-10-19T07:28:15.162Z,84.97
2022-10-19T07:29:03.205Z,83.92
2022-10-19T07:29:50.542Z,84.43
2022-10-19T07:30:39.059Z,84.58
2022-10-19T07:31:27.620Z,84.88
2022-10-19T07:32:14.564Z,83.27
2022-10-19T07:33:01.424Z,82.79
2022-10-19T07:33:52.893Z,83.15
2022-10-19T07:34:39.881Z,83.79
2022-10-19T07:35:27.265Z,84.32
2022-10-19T07:36:14.501Z,83.53
2022-10-19T07:37:01.521Z,82.47
2022-10-19T07:37:48.433Z,83.08
2022-10-19T07:38:36.289Z,83.51
2022-10-19T07:39:23.293Z,83.65
2022-10-19T07:40:10.890Z,83.46
2022-10-19T07:41:12.932Z,82.73
2022-10-19T07:41:59.830Z,83.00
2022-10-19T07:42:46.811Z,82.19
2022-10-19T07:43:34.371Z,82.21
2022-10-19T07:44:21.352Z,81.93
2022-10-19T07:45:08.513Z,82.08
2022-10-19T07:46:06.199Z,81.16
2022-10-19T07:46:53.259Z,81.54
2022-10-19T07:47:40.110Z,82.13
2022-10-19T07:48:27.401Z,79.56
2022-10-19T07:49:19.302Z,79.79
2022-10-19T07:50:06.462Z,79.74
2022-10-19T07:50:53.421Z,79.98
2022-10-19T07:51:40.866Z,80.69
2022-10-19T07:52:29.139Z,80.82
2022-10-19T07:53:16.781Z,80.04
2022-10-19T07:54:04.340Z,80.02
2022-10-19T07:54:51.228Z,79.75
2022-10-19T07:55:38.169Z,78.62
2022-10-19T07:56:27.021Z,78.31
2022-10-19T07:57:14.150Z,78.57
2022-10-19T07:58:02.291Z,79.06
2022-10-19T07:58:51.361Z,79.47
2022-10-19T07:59:38.471Z,78.95
2022-10-19T08:00:25.647Z,78.27
2022-10-19T08:01:41.304Z,78.53
2022-10-19T08:02:39.382Z,79.69
2022-10-19T08:04:59.796Z,78.40
2022-10-19T08:05:47.949Z,79.07
2022-10-19T08:06:35.331Z,79.41
2022-10-19T08:07:22.300Z,79.27
2022-10-19T08:08:09.300Z,78.09
2022-10-19T08:08:56.917Z,77.42
2022-10-19T08:09:59.325Z,77.09
2022-10-19T08:10:46.374Z,77.30
2022-10-19T08:11:34.730Z,78.13
2022-10-19T08:12:21.740Z,77.91
2022-10-19T08:13:08.730Z,77.93
2022-10-19T08:13:56.231Z,77.64
2022-10-19T08:14:43.191Z,77.70
2022-10-19T08:15:30.670Z,77.80
2022-10-19T08:16:28.412Z,76.74
2022-10-19T08:17:17.901Z,77.19
2022-10-19T08:18:04.969Z,77.54
2022-10-19T08:18:53.109Z,76.93
2022-10-19T08:19:43.637Z,77.69
2022-10-19T08:20:30.701Z,76.49
2022-10-19T08:21:18.116Z,76.48
2022-10-19T08:22:05.092Z,76.57
2022-10-19T08:22:56.385Z,77.07
2022-10-19T08:23:45.751Z,77.22
2022-10-19T08:24:33.182Z,76.52
2022-10-19T08:25:20.568Z,75.22
2022-10-19T08:26:07.560Z,75.46
2022-10-19T08:26:55.007Z,76.10
2022-10-19T08:27:41.908Z,76.09
2022-10-19T08:28:28.860Z,76.05
2022-10-19T08:29:18.329Z,76.13
2022-10-19T08:30:05.700Z,76.48
2022-10-19T08:30:58.170Z,76.90
2022-10-19T08:31:46.550Z,76.37
2022-10-19T08:32:33.926Z,74.78
2022-10-19T08:33:21.049Z,74.51
2022-10-19T08:34:08.800Z,74.75
2022-10-19T08:34:55.755Z,75.39
2022-10-19T08:35:42.611Z,74.67
2022-10-19T08:36:31.598Z,74.06
2022-10-19T08:37:40.115Z,74.55
2022-10-19T08:38:26.841Z,74.85
2022-10-19T08:39:14.680Z,74.82
2022-10-19T08:40:01.480Z,74.44
2022-10-19T08:40:48.451Z,74.21
2022-10-19T08:41:41.245Z,73.21
2022-10-19T08:43:10.460Z,74.03
2022-10-19T08:44:00.296Z,73.29
2022-10-19T08:44:47.080Z,72.92
2022-10-19T08:45:43.569Z,73.10
2022-10-19T08:46:42.570Z,72.23
2022-10-19T08:47:51.372Z,71.72
2022-10-19T08:48:39.748Z,71.20
2022-10-19T08:49:27.962Z,70.13
2022-10-19T08:50:32.220Z,70.69
2022-10-19T08:51:19.230Z,71.31
2022-10-19T08:52:10.550Z,70.33
2022-10-19T08:53:32.830Z,71.28
2022-10-19T08:54:19.840Z,69.96
2022-10-19T08:55:20.457Z,70.32
2022-10-19T08:56:51.446Z,70.00
2022-10-19T08:58:04.410Z,68.90
2022-10-19T08:59:15.620Z,69.94
2022-10-19T09:00:35.270Z,70.89
2022-10-19T09:01:41.380Z,68.03
2022-10-19T09:02:43.201Z,67.69
2022-10-19T09:03:54.933Z,68.25
2022-10-19T09:04:47.289Z,68.10
2022-10-19T09:05:42.902Z,67.69
2022-10-19T09:06:43.535Z,67.18
2022-10-19T09:07:32.675Z,66.85
2022-10-19T09:09:53.949Z,67.11
2022-10-19T09:10:43.401Z,67.87
2022-10-19T09:11:37.148Z,68.17
2022-10-19T09:12:58.564Z,67.61
2022-10-19T09:14:04.356Z,67.36
2022-10-19T09:15:01.203Z,67.66
2022-10-19T09:15:50.540Z,67.28
2022-10-19T09:16:37.440Z,66.58
2022-10-19T09:17:25.570Z,66.58
2022-10-19T09:18:25.832Z,67.03
2022-10-19T09:19:18.732Z,65.32
2022-10-19T09:20:20.231Z,64.23
2022-10-19T09:21:30.159Z,64.83
2022-10-19T09:22:30.019Z,65.46
2022-10-19T09:23:36.153Z,63.30
2022-10-19T09:24:47.173Z,61.04
2022-10-19T09:25:35.771Z,60.80
2022-10-19T09:26:26.957Z,61.21
2022-10-19T09:27:21.625Z,62.72
2022-10-19T09:28:36.617Z,61.47
2022-10-19T09:29:27.630Z,61.34
2022-10-19T09:30:23.955Z,61.07
2022-10-19T09:31:17.153Z,61.12
2022-10-19T09:32:06.490Z,60.93
2022-10-19T09:33:00.662Z,62.12
2022-10-19T09:33:52.396Z,61.96
2022-10-19T09:34:45.728Z,61.67
2022-10-19T09:35:36.790Z,62.77
2022-10-19T09:36:39.329Z,63.11
2022-10-19T09:37:32.689Z,62.80
2022-10-19T09:38:20.571Z,62.73
2022-10-19T09:39:14.150Z,62.40
2022-10-19T09:40:01.032Z,62.40
2022-10-19T09:40:47.879Z,61.73
2022-10-19T09:41:34.811Z,61.56
2022-10-19T09:42:30.535Z,62.03
2022-10-19T09:43:21.900Z,62.41
2022-10-19T09:44:08.632Z,62.07
2022-10-19T09:44:55.700Z,61.93
2022-10-19T09:45:48.949Z,61.44
2022-10-19T09:47:40.464Z,59.60
2022-10-19T09:48:30.209Z,59.92
2022-10-19T09:49:17.111Z,60.65
2022-10-19T09:50:07.078Z,60.54
2022-10-19T09:50:59.709Z,60.56
2022-10-19T09:51:51.916Z,59.61
2022-10-19T09:52:40.121Z,60.59
2022-10-19T09:53:27.700Z,61.21
2022-10-19T09:54:33.093Z,60.63
2022-10-19T09:55:42.575Z,60.99
2022-10-19T09:56:29.802Z,59.95
2022-10-19T09:57:22.201Z,59.90
2022-10-19T09:58:15.633Z,60.60
2022-10-19T09:59:02.860Z,59.86
2022-10-19T09:59:52.979Z,60.46
2022-10-19T10:00:45.112Z,59.66
2022-10-19T10:01:43.510Z,59.81
2022-10-19T10:02:33.059Z,59.44
2022-10-19T10:03:43.736Z,59.07
2022-10-19T10:04:30.730Z,59.69
2022-10-19T10:05:18.625Z,58.51
2022-10-19T10:06:09.259Z,58.09
2022-10-19T10:06:57.274Z,58.74
2022-10-19T10:07:44.751Z,58.79
2022-10-19T10:08:34.503Z,59.15
2022-10-19T10:09:27.389Z,59.45
2022-10-19T10:10:28.088Z,59.58
2022-10-19T10:11:25.561Z,59.17
2022-10-19T10:12:16.223Z,59.77
2022-10-19T10:13:03.392Z,60.52
2022-10-19T10:13:52.589Z,59.13
2022-10-19T10:14:40.763Z,58.50
2022-10-19T10:15:42.754Z,57.14
2022-10-19T10:16:30.639Z,56.60
2022-10-19T10:17:30.179Z,57.26
2022-10-19T10:18:17.880Z,55.96
2022-10-19T10:19:07.279Z,56.48
2022-10-19T10:20:00.234Z,57.69
2022-10-19T10:21:06.005Z,57.67
2022-10-19T10:21:55.842Z,56.76
2022-10-19T10:22:52.759Z,57.11
2022-10-19T10:23:40.025Z,57.38
2022-10-19T10:24:31.954Z,56.72
2022-10-19T10:25:19.379Z,56.68
2022-10-19T10:26:16.890Z,57.26
2022-10-19T10:27:05.614Z,57.36
2022-10-19T10:28:18.809Z,57.19
2022-10-19T10:29:20.859Z,58.60
2022-10-19T10:30:10.280Z,58.36
2022-10-19T10:31:08.319Z,59.00
2022-10-19T10:32:06.490Z,58.06
2022-10-19T10:32:54.757Z,57.68
2022-10-19T10:33:45.947Z,57.19
2022-10-19T10:35:00.994Z,56.86
2022-10-19T10:35:55.860Z,56.50
2022-10-19T10:36:42.884Z,55.60
2022-10-19T10:37:38.510Z,56.30
2022-10-19T10:38:32.847Z,56.52
2022-10-19T10:39:20.395Z,55.77
2022-10-19T10:40:29.957Z,56.14
2022-10-19T10:41:20.374Z,56.33